Terminal Aerodrome Forecast
Issued by NWS

Home | Current Version | Previous Version | Text Only | Print | Product List | Glossary On
Versions: 1 2 3 4 5 6 7 8 9 10 11 12
000
FTUS44 KLUB 290520
TAFCDS
TAF
KCDS 290520Z 2906/3006 13009KT P6SM SKC
     FM290900 30006KT P6SM FEW100
     FM291600 35015G25KT P6SM FEW150
     FM300000 05010KT P6SM FEW150=

USA.gov is the U.S. government's official web portal to all federal, state and local government web resources and services.